createdAt,value
2018-09-14T00:02:02.026Z,4.37
2018-09-14T00:04:31.410Z,4.10
2018-09-14T00:07:00.506Z,4.93
2018-09-14T00:09:29.543Z,4.70
2018-09-14T00:11:58.442Z,5.27
2018-09-14T00:14:26.909Z,4.93
2018-09-14T00:16:55.880Z,5.17
2018-09-14T00:19:24.932Z,4.80
2018-09-14T00:21:54.072Z,5.67
2018-09-14T00:24:23.032Z,4.13
2018-09-14T00:26:51.781Z,4.73
2018-09-14T00:29:21.679Z,4.63
2018-09-14T00:31:51.009Z,4.27
2018-09-14T00:34:19.756Z,4.13
2018-09-14T00:36:48.436Z,4.20
2018-09-14T00:39:17.569Z,4.43
2018-09-14T00:41:46.243Z,4.20
2018-09-14T00:44:15.524Z,4.43
2018-09-14T00:46:44.676Z,4.47
2018-09-14T00:49:13.267Z,4.23
2018-09-14T00:51:42.386Z,4.27
2018-09-14T00:54:11.016Z,3.97
2018-09-14T00:56:39.899Z,3.90
2018-09-14T00:59:09.240Z,3.90
2018-09-14T01:01:38.441Z,4.00
2018-09-14T01:04:07.369Z,3.83
2018-09-14T01:06:36.560Z,4.37
2018-09-14T01:09:11.450Z,3.63
2018-09-14T01:11:40.386Z,3.80
2018-09-14T01:14:09.682Z,3.93
2018-09-14T01:16:38.549Z,3.60
2018-09-14T01:19:07.571Z,3.70
2018-09-14T01:21:36.690Z,3.40
2018-09-14T01:24:06.566Z,3.53
2018-09-14T01:26:35.510Z,3.93
2018-09-14T01:29:04.330Z,3.37
2018-09-14T01:31:33.613Z,4.00
2018-09-14T01:34:02.653Z,3.83
2018-09-14T01:36:31.483Z,3.80
2018-09-14T01:39:00.461Z,4.03
2018-09-14T01:41:29.713Z,3.70
2018-09-14T01:43:58.561Z,3.90
2018-09-14T01:46:34.733Z,4.20
2018-09-14T01:49:04.061Z,4.03
2018-09-14T01:51:33.065Z,4.37
2018-09-14T01:54:01.884Z,2.93
2018-09-14T01:56:30.683Z,3.17
2018-09-14T01:58:59.626Z,3.47
2018-09-14T02:01:28.984Z,3.70
2018-09-14T02:03:58.420Z,3.60
2018-09-14T02:06:28.141Z,3.33
2018-09-14T02:08:57.512Z,3.73
2018-09-14T02:11:26.487Z,4.10
2018-09-14T02:13:55.529Z,4.10
2018-09-14T02:16:24.338Z,5.17
2018-09-14T02:18:53.321Z,5.80
2018-09-14T02:21:22.058Z,5.40
2018-09-14T02:23:51.207Z,5.87
2018-09-14T02:26:20.030Z,5.33
2018-09-14T02:28:48.764Z,5.77
2018-09-14T02:31:18.021Z,5.40
2018-09-14T02:33:47.067Z,5.03
2018-09-14T02:36:16.024Z,6.00
2018-09-14T02:38:46.207Z,6.00
2018-09-14T02:41:15.163Z,5.93
2018-09-14T02:43:44.549Z,6.03
2018-09-14T02:46:13.259Z,6.50
2018-09-14T02:48:42.441Z,5.73
2018-09-14T02:51:11.476Z,5.87
2018-09-14T02:53:40.543Z,6.13
2018-09-14T02:56:09.918Z,5.90
2018-09-14T02:58:38.634Z,6.33
2018-09-14T03:01:07.826Z,5.77
2018-09-14T03:03:37.010Z,5.27
2018-09-14T03:06:06.012Z,5.87
2018-09-14T03:08:35.147Z,5.10
2018-09-14T03:11:04.369Z,5.07
2018-09-14T03:13:34.456Z,4.50
2018-09-14T03:16:03.917Z,5.00
2018-09-14T03:18:32.739Z,5.17
2018-09-14T03:21:01.718Z,4.70
2018-09-14T03:23:30.372Z,4.53
2018-09-14T03:25:59.117Z,4.70
2018-09-14T03:28:28.330Z,4.60
2018-09-14T03:30:57.187Z,5.03
2018-09-14T03:33:26.236Z,4.43
2018-09-14T03:35:54.978Z,4.70
2018-09-14T03:38:24.247Z,4.50
2018-09-14T03:40:52.875Z,4.73
2018-09-14T03:43:21.810Z,5.10
2018-09-14T03:45:50.976Z,5.40
2018-09-14T03:48:19.973Z,5.50
2018-09-14T03:50:48.877Z,6.90
2018-09-14T03:53:18.321Z,6.17
2018-09-14T03:55:47.650Z,5.80
2018-09-14T03:58:16.328Z,5.90
2018-09-14T04:00:45.626Z,5.77
2018-09-14T04:03:14.897Z,6.83
2018-09-14T04:05:43.954Z,6.80
2018-09-14T04:08:13.045Z,7.00
2018-09-14T04:10:42.261Z,6.17
2018-09-14T04:13:12.083Z,7.17
2018-09-14T04:15:40.686Z,6.80
2018-09-14T04:18:09.618Z,6.67
2018-09-14T04:20:38.557Z,6.37
2018-09-14T04:23:07.441Z,6.27
2018-09-14T04:25:36.196Z,6.57
2018-09-14T04:28:05.237Z,7.20
2018-09-14T04:30:34.160Z,6.90
2018-09-14T04:33:03.721Z,6.67
2018-09-14T04:35:32.500Z,6.20
2018-09-14T04:38:01.780Z,6.83
2018-09-14T04:40:30.528Z,5.90
2018-09-14T04:42:59.449Z,7.10
2018-09-14T04:45:29.205Z,6.40
2018-09-14T04:47:59.391Z,6.47
2018-09-14T04:50:28.171Z,6.80
2018-09-14T04:52:57.388Z,7.67
2018-09-14T04:55:26.420Z,6.23
2018-09-14T04:57:55.494Z,6.60
2018-09-14T05:00:24.236Z,7.10
2018-09-14T05:02:53.238Z,7.43
2018-09-14T05:05:22.453Z,7.30
2018-09-14T05:07:51.679Z,7.00
2018-09-14T05:10:20.464Z,7.30
2018-09-14T05:12:51.290Z,7.20
2018-09-14T05:15:20.186Z,7.50
2018-09-14T05:17:49.334Z,7.63
2018-09-14T05:20:18.777Z,7.47
2018-09-14T05:22:48.128Z,7.50
2018-09-14T05:25:18.663Z,7.33
2018-09-14T05:27:47.797Z,7.53
2018-09-14T05:30:18.016Z,6.97
2018-09-14T05:32:47.491Z,8.00
2018-09-14T05:35:17.397Z,8.13
2018-09-14T05:37:46.143Z,7.43
2018-09-14T05:40:15.097Z,7.57
2018-09-14T05:42:44.382Z,7.43
2018-09-14T05:45:13.151Z,8.57
2018-09-14T05:47:42.226Z,8.70
2018-09-14T05:50:11.105Z,9.10
2018-09-14T05:52:40.154Z,8.90
2018-09-14T05:55:09.691Z,8.87
2018-09-14T05:57:38.813Z,8.67
2018-09-14T06:00:08.454Z,9.33
2018-09-14T06:02:37.490Z,9.13
2018-09-14T06:05:07.155Z,10.27
2018-09-14T06:07:36.052Z,9.63
2018-09-14T06:10:05.897Z,9.50
2018-09-14T06:12:35.186Z,8.83
2018-09-14T06:15:04.081Z,9.10
2018-09-14T06:17:33.033Z,9.93
2018-09-14T06:20:02.069Z,10.77
2018-09-14T06:22:31.176Z,10.40
2018-09-14T06:25:00.329Z,10.07
2018-09-14T06:27:29.999Z,10.30
2018-09-14T06:29:59.628Z,9.40
2018-09-14T06:32:28.972Z,9.60
2018-09-14T06:34:57.885Z,9.97
2018-09-14T06:37:27.080Z,9.00
2018-09-14T06:39:55.863Z,8.23
2018-09-14T06:42:24.686Z,8.20
2018-09-14T06:44:54.013Z,8.03
2018-09-14T06:47:22.931Z,8.67
2018-09-14T06:49:52.022Z,8.10
2018-09-14T06:52:20.924Z,8.67
2018-09-14T06:54:50.469Z,8.17
2018-09-14T06:57:20.736Z,7.20
2018-09-14T06:59:49.872Z,7.50
2018-09-14T07:02:19.514Z,8.00
2018-09-14T07:04:48.641Z,6.07
2018-09-14T07:07:17.520Z,7.20
2018-09-14T07:09:47.227Z,7.23
2018-09-14T07:12:16.325Z,6.50
2018-09-14T07:14:46.468Z,6.63
2018-09-14T07:17:15.729Z,6.60
2018-09-14T07:19:44.898Z,6.77
2018-09-14T07:22:15.008Z,6.93
2018-09-14T07:24:44.806Z,6.17
2018-09-14T07:27:14.271Z,6.00
2018-09-14T07:29:43.383Z,6.00
2018-09-14T07:32:12.969Z,5.80
2018-09-14T07:34:43.099Z,5.73
2018-09-14T07:37:12.201Z,6.00
2018-09-14T07:39:40.980Z,6.07
2018-09-14T07:42:12.246Z,5.43
2018-09-14T07:44:41.225Z,6.10
2018-09-14T07:47:10.391Z,6.73
2018-09-14T07:49:39.648Z,5.80
2018-09-14T07:52:09.532Z,5.37
2018-09-14T07:54:39.614Z,6.07
2018-09-14T07:57:09.171Z,5.70
2018-09-14T07:59:38.207Z,5.20
2018-09-14T08:02:07.703Z,5.40
2018-09-14T08:04:37.202Z,5.57
2018-09-14T08:07:06.263Z,5.17
2018-09-14T08:09:35.357Z,5.37
2018-09-14T08:12:05.052Z,6.43
2018-09-14T08:14:34.390Z,4.50
2018-09-14T08:17:03.575Z,4.37
2018-09-14T08:19:33.609Z,4.87
2018-09-14T08:22:03.336Z,5.07
2018-09-14T08:24:32.203Z,4.60
2018-09-14T08:27:01.070Z,5.03
2018-09-14T08:29:30.393Z,4.97
2018-09-14T08:31:59.231Z,5.00
2018-09-14T08:34:28.290Z,4.77
2018-09-14T08:36:57.526Z,4.57
2018-09-14T08:39:27.304Z,5.00
2018-09-14T08:41:56.300Z,5.33
2018-09-14T08:44:43.231Z,4.67
2018-09-14T08:47:13.933Z,4.30
2018-09-14T08:49:43.202Z,4.70
2018-09-14T08:52:12.277Z,4.33
2018-09-14T08:54:41.468Z,4.70
2018-09-14T08:57:10.782Z,4.73
2018-09-14T08:59:39.992Z,4.80
2018-09-14T09:02:09.160Z,4.50
2018-09-14T09:04:38.474Z,4.40
2018-09-14T09:07:07.121Z,4.47
2018-09-14T09:09:36.837Z,4.57
2018-09-14T09:12:05.885Z,4.47
2018-09-14T09:14:35.429Z,5.13
2018-09-14T09:17:05.060Z,3.93
2018-09-14T09:19:34.468Z,4.27
2018-09-14T09:22:03.142Z,4.57
2018-09-14T09:24:31.907Z,4.93
2018-09-14T09:27:00.620Z,3.80
2018-09-14T09:29:30.135Z,3.40
2018-09-14T09:32:00.092Z,4.03
2018-09-14T09:34:29.579Z,4.47
2018-09-14T09:36:58.493Z,3.67
2018-09-14T09:39:27.407Z,3.60
2018-09-14T09:41:56.081Z,4.10
2018-09-14T09:44:25.003Z,3.80
2018-09-14T09:46:53.792Z,3.23
2018-09-14T09:49:22.750Z,3.20
2018-09-14T09:51:51.686Z,4.37
2018-09-14T09:54:20.682Z,4.57
2018-09-14T09:56:50.306Z,4.30
2018-09-14T09:59:19.593Z,4.60
2018-09-14T10:01:54.322Z,4.00
2018-09-14T10:04:37.994Z,4.33
2018-09-14T10:07:08.421Z,5.07
2018-09-14T10:09:37.251Z,4.17
2018-09-14T10:12:06.308Z,4.27
2018-09-14T10:14:36.793Z,4.63
2018-09-14T10:17:06.649Z,5.30
2018-09-14T10:19:37.611Z,4.47
2018-09-14T10:22:06.625Z,4.40
2018-09-14T10:24:37.398Z,4.37
2018-09-14T10:27:06.354Z,4.83
2018-09-14T10:29:35.907Z,4.17
2018-09-14T10:32:04.960Z,4.77
2018-09-14T10:34:34.104Z,4.43
2018-09-14T10:37:02.892Z,3.80
2018-09-14T10:39:31.956Z,4.30
2018-09-14T10:42:02.036Z,3.90
2018-09-14T10:44:30.914Z,4.00
2018-09-14T10:46:59.867Z,3.37
2018-09-14T10:49:28.579Z,3.50
2018-09-14T10:51:57.222Z,3.73
2018-09-14T10:54:26.454Z,3.00
2018-09-14T10:56:55.892Z,3.17
2018-09-14T10:59:25.663Z,2.70
2018-09-14T11:01:54.637Z,2.53
2018-09-14T11:04:23.852Z,2.03
2018-09-14T11:06:52.886Z,2.53
2018-09-14T11:09:22.108Z,2.30
2018-09-14T11:11:52.003Z,2.30
2018-09-14T11:14:20.947Z,2.20
2018-09-14T11:16:50.400Z,2.10
2018-09-14T11:19:19.677Z,2.10
2018-09-14T11:21:48.861Z,2.30
2018-09-14T11:24:18.820Z,2.33
2018-09-14T11:26:48.096Z,2.70
2018-09-14T11:29:16.931Z,2.20
2018-09-14T11:31:47.563Z,2.03
2018-09-14T11:34:16.817Z,2.30
2018-09-14T11:36:48.070Z,2.20
2018-09-14T11:39:16.932Z,2.23
2018-09-14T11:41:46.858Z,2.43
2018-09-14T11:44:16.603Z,2.17
2018-09-14T11:46:46.488Z,2.20
2018-09-14T11:49:15.625Z,2.40
2018-09-14T11:51:44.891Z,1.93
2018-09-14T11:54:14.229Z,2.20
2018-09-14T11:56:43.562Z,1.90
2018-09-14T11:59:14.410Z,2.10
2018-09-14T12:01:46.681Z,2.00
2018-09-14T12:04:23.184Z,2.30
2018-09-14T12:06:52.689Z,1.67
2018-09-14T12:09:22.396Z,1.87
2018-09-14T12:11:51.643Z,1.73
2018-09-14T12:14:21.087Z,1.70
2018-09-14T12:16:50.116Z,1.90
2018-09-14T12:19:21.536Z,1.37
2018-09-14T12:21:50.989Z,1.90
2018-09-14T12:24:20.094Z,1.60
2018-09-14T12:26:49.760Z,1.53
2018-09-14T12:29:19.425Z,1.70
2018-09-14T12:31:48.436Z,1.13
2018-09-14T12:34:17.963Z,1.37
2018-09-14T12:36:47.285Z,10.90
2018-09-14T12:39:16.952Z,6.03
2018-09-14T12:41:46.702Z,3.97
2018-09-14T12:44:16.925Z,7.73
2018-09-14T12:49:29.548Z,2.47
2018-09-14T12:52:03.629Z,2.30
2018-09-14T12:54:32.668Z,3.23
2018-09-14T12:57:02.177Z,1.60
2018-09-14T12:59:31.997Z,1.33
2018-09-14T13:02:02.594Z,1.87
2018-09-14T13:04:33.586Z,1.50
2018-09-14T13:07:02.871Z,1.23
2018-09-14T13:09:31.866Z,1.20
2018-09-14T13:12:01.949Z,1.37
2018-09-14T13:14:31.459Z,0.93
2018-09-14T13:17:02.177Z,1.80
2018-09-14T13:19:31.885Z,1.13
2018-09-14T13:22:01.679Z,1.30
2018-09-14T13:24:31.546Z,1.17
2018-09-14T13:27:04.579Z,1.20
2018-09-14T13:29:34.537Z,1.33
2018-09-14T13:32:03.429Z,1.30
2018-09-14T13:34:32.159Z,1.17
2018-09-14T13:37:00.924Z,1.23
2018-09-14T13:39:30.163Z,1.50
2018-09-14T13:41:59.716Z,1.40
2018-09-14T13:44:28.780Z,1.50
2018-09-14T13:46:58.781Z,1.20
2018-09-14T13:49:27.914Z,1.80
2018-09-14T13:51:57.027Z,1.20
2018-09-14T13:54:26.288Z,1.50
2018-09-14T13:56:55.619Z,1.07
2018-09-14T13:59:24.927Z,1.47
2018-09-14T14:01:53.975Z,1.30
2018-09-14T14:04:23.410Z,1.10
2018-09-14T14:06:52.427Z,1.47
2018-09-14T14:09:21.828Z,1.23
2018-09-14T14:11:51.010Z,1.70
2018-09-14T14:14:20.745Z,1.30
2018-09-14T14:16:50.359Z,1.40
2018-09-14T14:19:20.917Z,1.20
2018-09-14T14:21:51.555Z,1.00
2018-09-14T14:24:20.643Z,0.93
2018-09-14T14:26:50.026Z,1.27
2018-09-14T14:29:19.287Z,1.23
2018-09-14T14:31:49.470Z,0.90
2018-09-14T14:34:18.632Z,1.30
2018-09-14T14:36:48.279Z,1.23
2018-09-14T14:39:18.663Z,1.13
2018-09-14T14:41:48.599Z,1.27
2018-09-14T14:44:17.872Z,0.73
2018-09-14T14:46:47.265Z,0.97
2018-09-14T14:49:16.821Z,0.90
2018-09-14T14:51:46.574Z,0.90
2018-09-14T14:54:16.740Z,0.73
2018-09-14T14:56:52.674Z,0.77
2018-09-14T14:59:22.080Z,1.00
2018-09-14T15:01:51.438Z,0.70
2018-09-14T15:04:21.285Z,0.50
2018-09-14T15:06:51.141Z,0.93
2018-09-14T15:09:21.093Z,0.87
2018-09-14T15:11:50.610Z,0.87
2018-09-14T15:14:20.309Z,0.90
2018-09-14T15:16:50.657Z,0.70
2018-09-14T15:19:22.931Z,0.60
2018-09-14T15:21:52.527Z,0.50
2018-09-14T15:24:22.489Z,0.70
2018-09-14T15:26:52.031Z,0.80
2018-09-14T15:29:21.970Z,0.80
2018-09-14T15:31:51.711Z,0.43
2018-09-14T15:34:20.927Z,0.83
2018-09-14T15:36:50.848Z,0.80
2018-09-14T15:39:21.177Z,0.83
2018-09-14T15:41:51.094Z,0.93
2018-09-14T15:44:20.770Z,0.73
2018-09-14T15:46:50.452Z,0.90
2018-09-14T15:49:21.235Z,0.70
2018-09-14T15:51:50.609Z,0.90
2018-09-14T15:54:20.212Z,0.87
2018-09-14T15:56:49.646Z,0.70
2018-09-14T15:59:20.778Z,0.70
2018-09-14T16:01:56.699Z,0.73
2018-09-14T16:04:26.476Z,0.73
2018-09-14T16:06:57.554Z,0.77
2018-09-14T16:09:29.742Z,0.83
2018-09-14T16:12:18.933Z,0.93
2018-09-14T16:14:48.787Z,1.10
2018-09-14T16:17:19.016Z,1.00
2018-09-14T16:19:49.945Z,0.70
2018-09-14T16:22:20.435Z,0.70
2018-09-14T16:24:51.254Z,0.67
2018-09-14T16:27:21.322Z,0.57
2018-09-14T16:29:51.476Z,0.70
2018-09-14T16:32:20.657Z,0.70
2018-09-14T16:34:50.108Z,0.70
2018-09-14T16:37:19.256Z,0.70
2018-09-14T16:39:48.730Z,0.90
2018-09-14T16:42:18.669Z,0.70
2018-09-14T16:44:47.467Z,0.60
2018-09-14T16:47:17.168Z,0.90
2018-09-14T16:49:46.491Z,0.67
2018-09-14T16:52:15.412Z,0.87
2018-09-14T16:54:44.967Z,1.10
2018-09-14T16:57:14.172Z,0.60
2018-09-14T16:59:43.950Z,0.80
2018-09-14T17:02:13.398Z,0.90
2018-09-14T17:04:42.830Z,0.63
2018-09-14T17:07:12.790Z,0.60
2018-09-14T17:09:42.436Z,0.60
2018-09-14T17:12:23.996Z,0.80
2018-09-14T17:14:53.120Z,0.87
2018-09-14T17:17:22.945Z,0.50
2018-09-14T17:19:53.440Z,0.83
2018-09-14T17:22:22.832Z,0.60
2018-09-14T17:24:52.221Z,0.67
2018-09-14T17:27:26.321Z,1.00
2018-09-14T17:29:58.274Z,0.70
2018-09-14T17:32:27.955Z,0.90
2018-09-14T17:34:58.339Z,0.57
2018-09-14T17:37:28.133Z,0.67
2018-09-14T17:39:57.118Z,0.60
2018-09-14T17:42:26.064Z,0.70
2018-09-14T17:44:55.370Z,0.77
2018-09-14T17:47:25.188Z,0.53
2018-09-14T17:49:54.618Z,0.80
2018-09-14T17:52:24.050Z,0.70
2018-09-14T17:54:53.787Z,0.70
2018-09-14T17:57:23.577Z,0.90
2018-09-14T17:59:53.454Z,0.67
2018-09-14T18:02:22.760Z,0.87
2018-09-14T18:04:52.633Z,0.77
2018-09-14T18:07:22.042Z,0.73
2018-09-14T18:09:51.440Z,0.80
2018-09-14T18:12:20.655Z,0.40
2018-09-14T18:14:50.132Z,0.40
2018-09-14T18:17:19.187Z,0.77
2018-09-14T18:19:48.541Z,1.03
2018-09-14T18:22:18.475Z,0.77
2018-09-14T18:24:48.127Z,0.67
2018-09-14T18:27:20.482Z,0.70
2018-09-14T18:29:49.689Z,0.47
2018-09-14T18:32:19.759Z,0.63
2018-09-14T18:34:50.383Z,0.77
2018-09-14T18:37:20.133Z,0.60
2018-09-14T18:39:49.724Z,0.70
2018-09-14T18:42:19.259Z,0.93
2018-09-14T18:44:49.014Z,0.90
2018-09-14T18:47:18.749Z,0.80
2018-09-14T18:49:49.731Z,0.87
2018-09-14T18:52:19.129Z,1.13
2018-09-14T18:54:51.516Z,1.00
2018-09-14T18:57:21.929Z,1.17
2018-09-14T18:59:51.674Z,0.93
2018-09-14T19:02:22.155Z,0.93
2018-09-14T19:04:51.533Z,0.90
2018-09-14T19:07:20.933Z,0.70
2018-09-14T19:09:50.139Z,0.93
2018-09-14T19:12:19.418Z,0.70
2018-09-14T19:14:48.882Z,0.87
2018-09-14T19:17:18.885Z,0.90
2018-09-14T19:19:47.889Z,1.00
2018-09-14T19:22:16.894Z,0.80
2018-09-14T19:24:47.494Z,1.00
2018-09-14T19:27:17.353Z,0.87
2018-09-14T19:29:46.749Z,1.20
2018-09-14T19:32:16.970Z,0.97
2018-09-14T19:34:47.503Z,0.60
2018-09-14T19:37:17.702Z,0.80
2018-09-14T19:39:48.962Z,0.87
2018-09-14T19:42:18.378Z,0.80
2018-09-14T19:45:02.293Z,0.73
2018-09-14T19:47:31.527Z,1.00
2018-09-14T19:50:00.913Z,0.80
2018-09-14T19:52:29.854Z,1.00
2018-09-14T19:55:00.547Z,0.90
2018-09-14T19:57:30.880Z,1.00
2018-09-14T20:00:00.509Z,0.90
2018-09-14T20:02:30.001Z,0.90
2018-09-14T20:04:59.113Z,0.80
2018-09-14T20:07:28.352Z,1.10
2018-09-14T20:09:57.768Z,1.00
2018-09-14T20:12:27.669Z,1.40
2018-09-14T20:14:56.878Z,0.77
2018-09-14T20:17:27.075Z,1.03
2018-09-14T20:19:56.861Z,0.90
2018-09-14T20:22:26.437Z,1.13
2018-09-14T20:24:55.975Z,1.03
2018-09-14T20:27:26.097Z,1.20
2018-09-14T20:29:55.475Z,1.17
2018-09-14T20:32:24.983Z,1.13
2018-09-14T20:34:54.214Z,1.17
2018-09-14T20:37:23.707Z,1.40
2018-09-14T20:39:52.865Z,1.13
2018-09-14T20:42:21.936Z,1.07
2018-09-14T20:44:50.988Z,1.27
2018-09-14T20:47:20.668Z,1.30
2018-09-14T20:49:49.728Z,0.93
2018-09-14T20:52:19.222Z,1.20
2018-09-14T20:54:48.365Z,1.00
2018-09-14T20:57:17.529Z,1.03
2018-09-14T20:59:46.968Z,1.20
2018-09-14T21:02:15.807Z,1.20
2018-09-14T21:04:45.514Z,1.20
2018-09-14T21:07:14.667Z,1.30
2018-09-14T21:09:43.956Z,1.47
2018-09-14T21:12:13.082Z,1.40
2018-09-14T21:14:42.111Z,1.43
2018-09-14T21:17:11.487Z,1.10
2018-09-14T21:19:40.564Z,1.07
2018-09-14T21:22:09.462Z,1.10
2018-09-14T21:24:39.249Z,0.93
2018-09-14T21:27:07.997Z,1.10
2018-09-14T21:29:37.629Z,1.33
2018-09-14T21:32:07.140Z,1.63
2018-09-14T21:34:36.726Z,1.30
2018-09-14T21:37:06.369Z,1.87
2018-09-14T21:39:36.316Z,1.63
2018-09-14T21:42:05.904Z,1.20
2018-09-14T21:44:35.025Z,1.40
2018-09-14T21:47:04.617Z,1.23
2018-09-14T21:49:33.981Z,1.83
2018-09-14T21:52:03.284Z,1.70
2018-09-14T21:57:08.487Z,1.60
2018-09-14T21:59:38.707Z,1.30
2018-09-14T22:02:08.233Z,1.20
2018-09-14T22:04:37.192Z,1.40
2018-09-14T22:07:06.597Z,1.70
2018-09-14T22:09:35.634Z,1.90
2018-09-14T22:12:04.644Z,1.33
2018-09-14T22:14:33.763Z,1.33
2018-09-14T22:17:03.167Z,1.90
2018-09-14T22:19:32.108Z,2.10
2018-09-14T22:22:01.149Z,1.50
2018-09-14T22:24:29.967Z,1.20
2018-09-14T22:26:58.895Z,1.57
2018-09-14T22:29:30.214Z,1.43
2018-09-14T22:31:59.218Z,1.40
2018-09-14T22:34:28.090Z,1.20
2018-09-14T22:36:56.965Z,1.23
2018-09-14T22:39:30.744Z,1.50
2018-09-14T22:42:00.973Z,1.30
2018-09-14T22:44:30.440Z,1.43
2018-09-14T22:46:59.734Z,1.30
2018-09-14T22:49:29.053Z,1.30
2018-09-14T22:51:58.063Z,1.30
2018-09-14T22:54:26.958Z,1.07
2018-09-14T22:56:56.298Z,1.50
2018-09-14T22:59:25.327Z,1.63
2018-09-14T23:01:54.782Z,1.20
2018-09-14T23:04:28.485Z,1.20
2018-09-14T23:06:58.060Z,1.00
2018-09-14T23:09:32.833Z,1.57
2018-09-14T23:12:01.617Z,1.10
2018-09-14T23:14:32.103Z,1.10
2018-09-14T23:17:01.005Z,1.00
2018-09-14T23:19:29.988Z,1.10
2018-09-14T23:21:59.476Z,1.40
2018-09-14T23:24:28.661Z,1.40
2018-09-14T23:26:57.836Z,0.87
2018-09-14T23:29:26.815Z,1.43
2018-09-14T23:31:55.408Z,0.93
2018-09-14T23:34:31.519Z,1.00
2018-09-14T23:37:02.877Z,1.07
2018-09-14T23:39:33.583Z,1.30
2018-09-14T23:42:03.696Z,1.27
2018-09-14T23:44:33.786Z,1.60
2018-09-14T23:47:02.651Z,1.37
2018-09-14T23:49:31.827Z,1.40
2018-09-14T23:52:00.625Z,1.03
2018-09-14T23:54:29.447Z,1.07
2018-09-14T23:56:58.665Z,1.40
2018-09-14T23:59:27.776Z,1.50
